Time;durP1;ratioP1;P1;durP2;ratioP2;P2;SDS_P1;SDS_P2;PMS_P1;PMS_P2;Temp;Humidity;BMP_temperature;BMP_pressure;BME280_temperature;BME280_humidity;BME280_pressure;Samples;Min_cycle;Max_cycle;Signal;HPM_P1;HPM_P2
2023/01/24 00:01:38;;;;;;;;;;;17.10;49.10;;;;;;10129124;28;1906;-72
2023/01/24 00:06:34;;;;;;;;;;;17.20;49.10;;;;;;10130375;28;826;-72
2023/01/24 00:11:29;;;;;;;;;;;17.10;49.10;;;;;;10129376;28;1055;-73
2023/01/24 00:16:24;;;;;;;;;;;17.10;49.20;;;;;;10128683;28;765;-72
2023/01/24 00:21:20;;;;;;;;;;;17.10;49.10;;;;;;10129005;28;1899;-73
2023/01/24 00:26:15;;;;;;;;;;;17.10;49.10;;;;;;10128469;28;956;-72
2023/01/24 00:31:11;;;;;;;;;;;17.10;49.20;;;;;;10128118;28;764;-73
2023/01/24 00:36:06;;;;;;;;;;;17.10;49.10;;;;;;10127555;28;779;-72
2023/01/24 00:41:01;;;;;;;;;;;17.10;49.10;;;;;;10128294;28;1903;-72
2023/01/24 00:45:57;;;;;;;;;;;17.10;49.10;;;;;;10128196;28;941;-72
2023/01/24 00:50:52;;;;;;;;;;;17.10;49.10;;;;;;10128072;28;794;-72
2023/01/24 00:55:47;;;;;;;;;;;17.10;49.10;;;;;;10127159;28;806;-72
2023/01/24 01:00:43;;;;;;;;;;;17.00;49.00;;;;;;10127500;28;1969;-72
2023/01/24 01:05:38;;;;;;;;;;;17.10;49.00;;;;;;10126780;28;763;-72
2023/01/24 01:10:34;;;;;;;;;;;17.00;49.00;;;;;;10127214;28;768;-72
2023/01/24 01:15:29;;;;;;;;;;;17.10;49.00;;;;;;10127037;28;861;-72
2023/01/24 01:20:24;;;;;;;;;;;17.10;49.00;;;;;;10126474;28;1977;-72
2023/01/24 01:25:20;;;;;;;;;;;17.10;49.00;;;;;;10126196;28;889;-72
2023/01/24 01:30:15;;;;;;;;;;;17.10;48.90;;;;;;10125926;28;915;-72
2023/01/24 01:35:10;;;;;;;;;;;17.10;48.90;;;;;;10126295;28;922;-72
2023/01/24 01:40:06;;;;;;;;;;;17.10;49.00;;;;;;10126054;28;1977;-72
2023/01/24 01:45:01;;;;;;;;;;;17.00;48.90;;;;;;10126037;28;818;-72
2023/01/24 01:49:57;;;;;;;;;;;17.10;48.80;;;;;;10125231;28;850;-72
2023/01/24 01:54:53;;;;;;;;;;;17.10;48.90;;;;;;10125078;28;950;-72
2023/01/24 01:59:48;;;;;;;;;;;17.10;49.00;;;;;;10124881;28;1906;-72
2023/01/24 02:04:44;;;;;;;;;;;17.10;49.00;;;;;;10124899;28;830;-72
2023/01/24 02:09:39;;;;;;;;;;;17.10;48.90;;;;;;10124754;28;865;-72
2023/01/24 02:19:48;;;;;;;;;;;17.00;48.90;;;;;;10124585;28;1906;-72
2023/01/24 02:24:44;;;;;;;;;;;17.00;48.90;;;;;;10125662;28;889;-72
2023/01/24 02:29:39;;;;;;;;;;;17.00;48.90;;;;;;10124395;28;897;-72
2023/01/24 02:34:34;;;;;;;;;;;17.00;48.90;;;;;;10123792;28;796;-72
2023/01/24 02:39:30;;;;;;;;;;;17.00;48.80;;;;;;10124834;28;1918;-72
2023/01/24 02:44:25;;;;;;;;;;;17.00;48.80;;;;;;10123575;28;893;-72
2023/01/24 02:49:21;;;;;;;;;;;17.00;48.80;;;;;;10123479;28;916;-73
2023/01/24 02:54:16;;;;;;;;;;;17.00;48.90;;;;;;10124239;28;917;-73
2023/01/24 02:59:11;;;;;;;;;;;17.00;48.80;;;;;;10123805;28;1906;-72
2023/01/24 03:04:07;;;;;;;;;;;17.00;48.70;;;;;;10131064;28;810;-72
2023/01/24 03:09:18;;;;;;;;;;;17.00;48.70;;;;;;10131340;28;1019;-73
2023/01/24 03:35:09;;;;;;;;;;;17.00;48.70;;;;;;10130440;28;687;-72
2023/01/24 03:40:06;;;;;;;;;;;17.00;48.60;;;;;;10130801;28;1915;-72
2023/01/24 03:45:01;;;;;;;;;;;17.00;48.80;;;;;;10129925;28;851;-72
2023/01/24 03:55:11;;;;;;;;;;;17.00;48.50;;;;;;10129630;28;668;-73
2023/01/24 04:00:06;;;;;;;;;;;17.00;48.70;;;;;;10130058;28;1960;-73
2023/01/24 04:05:13;;;;;;;;;;;17.00;48.70;;;;;;10129130;28;877;-72
2023/01/24 04:10:09;;;;;;;;;;;17.00;48.70;;;;;;10128982;28;858;-72
2023/01/24 04:15:04;;;;;;;;;;;16.90;48.60;;;;;;10127643;28;826;-72
2023/01/24 04:20:00;;;;;;;;;;;17.00;48.60;;;;;;10128484;28;1902;-72
2023/01/24 04:24:55;;;;;;;;;;;17.00;48.60;;;;;;10128462;28;802;-72
2023/01/24 04:29:50;;;;;;;;;;;16.90;48.50;;;;;;10128282;28;925;-73
2023/01/24 04:34:46;;;;;;;;;;;17.00;48.60;;;;;;10128676;28;798;-73
2023/01/24 04:39:41;;;;;;;;;;;16.90;48.60;;;;;;10127842;28;1989;-72
2023/01/24 04:44:36;;;;;;;;;;;16.90;48.60;;;;;;10127677;28;781;-72
2023/01/24 04:49:35;;;;;;;;;;;17.00;48.60;;;;;;10127663;28;867;-72
2023/01/24 04:54:30;;;;;;;;;;;16.90;48.50;;;;;;10127356;28;818;-72
2023/01/24 04:59:26;;;;;;;;;;;17.00;48.50;;;;;;10126520;28;1961;-72
2023/01/24 05:04:21;;;;;;;;;;;16.90;48.50;;;;;;10126940;28;810;-72
2023/01/24 05:09:16;;;;;;;;;;;17.00;48.50;;;;;;10126828;28;925;-72
2023/01/24 05:14:12;;;;;;;;;;;17.00;48.50;;;;;;10126567;28;933;-72
2023/01/24 05:19:07;;;;;;;;;;;17.00;48.40;;;;;;10126872;28;1894;-73
2023/01/24 05:24:02;;;;;;;;;;;17.00;48.30;;;;;;10126490;28;822;-73
2023/01/24 05:28:58;;;;;;;;;;;17.10;48.40;;;;;;10126629;28;767;-72
2023/01/24 05:33:53;;;;;;;;;;;17.10;48.40;;;;;;10125859;28;826;-72
2023/01/24 05:38:48;;;;;;;;;;;17.10;48.40;;;;;;10126238;28;1974;-72
2023/01/24 05:43:44;;;;;;;;;;;17.10;48.30;;;;;;10126131;28;893;-72
2023/01/24 05:48:39;;;;;;;;;;;17.10;48.30;;;;;;10125993;28;776;-72
2023/01/24 05:53:35;;;;;;;;;;;17.10;48.40;;;;;;10125332;28;956;-72
2023/01/24 05:58:30;;;;;;;;;;;17.10;48.40;;;;;;10125581;28;1949;-72
2023/01/24 06:03:25;;;;;;;;;;;17.10;48.30;;;;;;10124988;28;913;-72
2023/01/24 06:08:21;;;;;;;;;;;17.10;48.30;;;;;;10124485;28;1104;-74
2023/01/24 06:13:16;;;;;;;;;;;17.10;48.30;;;;;;10124671;28;818;-74
2023/01/24 06:18:11;;;;;;;;;;;17.10;48.30;;;;;;10125433;28;810;-74
2023/01/24 06:23:07;;;;;;;;;;;17.10;48.20;;;;;;10124253;28;1962;-79
2023/01/24 06:28:02;;;;;;;;;;;17.10;48.30;;;;;;10124220;28;889;-73
2023/01/24 06:33:02;;;;;;;;;;;17.10;48.30;;;;;;10123495;28;1039;-74
2023/01/24 06:37:58;;;;;;;;;;;17.10;48.30;;;;;;10129707;28;1137;-73
2023/01/24 06:42:53;;;;;;;;;;;17.10;48.30;;;;;;10131431;28;1914;-70
2023/01/24 06:47:48;;;;;;;;;;;17.30;48.40;;;;;;10131661;28;954;-70
2023/01/24 06:52:44;;;;;;;;;;;17.30;48.40;;;;;;10131183;28;846;-70
2023/01/24 06:57:39;;;;;;;;;;;17.40;48.30;;;;;;10131093;28;984;-71
2023/01/24 07:02:34;;;;;;;;;;;17.40;48.40;;;;;;10169037;28;1906;-71
2023/01/24 07:07:30;;;;;;;;;;;17.40;48.30;;;;;;10170645;28;1063;-70
2023/01/24 07:12:25;;;;;;;;;;;17.40;48.30;;;;;;10170975;28;1014;-70
2023/01/24 07:17:20;;;;;;;;;;;17.40;48.30;;;;;;10170794;28;1001;-70
2023/01/24 07:22:16;;;;;;;;;;;17.40;48.40;;;;;;10170466;28;1899;-70
2023/01/24 07:27:11;;;;;;;;;;;17.30;48.40;;;;;;10170484;28;848;-69
2023/01/24 07:32:07;;;;;;;;;;;17.30;48.50;;;;;;10169640;28;921;-70
2023/01/24 07:37:02;;;;;;;;;;;17.40;48.70;;;;;;10168875;28;877;-70
2023/01/24 07:41:57;;;;;;;;;;;17.40;48.70;;;;;;10169468;28;1915;-70
2023/01/24 07:46:53;;;;;;;;;;;17.40;48.70;;;;;;10168942;28;893;-71
2023/01/24 07:51:48;;;;;;;;;;;17.40;48.70;;;;;;10168954;28;826;-70
2023/01/24 07:56:43;;;;;;;;;;;17.40;48.60;;;;;;10168271;28;929;-69
2023/01/24 08:01:39;;;;;;;;;;;17.40;48.50;;;;;;10169061;28;1902;-70
2023/01/24 08:06:34;;;;;;;;;;;17.50;48.50;;;;;;10169302;28;826;-70
2023/01/24 08:11:29;;;;;;;;;;;17.50;48.40;;;;;;10169149;28;826;-71
2023/01/24 08:16:26;;;;;;;;;;;17.60;48.60;;;;;;10168306;28;871;-70
2023/01/24 08:21:21;;;;;;;;;;;17.50;48.60;;;;;;10168101;28;1898;-70
2023/01/24 08:26:16;;;;;;;;;;;17.50;48.40;;;;;;10168577;28;802;-71
2023/01/24 08:31:12;;;;;;;;;;;17.50;48.30;;;;;;10167810;28;817;-70
2023/01/24 08:36:07;;;;;;;;;;;17.50;48.40;;;;;;10167968;28;837;-70
2023/01/24 08:41:03;;;;;;;;;;;17.50;48.40;;;;;;10166351;28;1903;-70
2023/01/24 08:45:58;;;;;;;;;;;17.50;48.30;;;;;;10167189;28;926;-70
2023/01/24 08:50:54;;;;;;;;;;;17.50;48.40;;;;;;10167036;28;887;-70
2023/01/24 08:55:49;;;;;;;;;;;17.50;48.30;;;;;;10166811;28;826;-70
2023/01/24 09:00:45;;;;;;;;;;;17.60;48.30;;;;;;10165344;28;1965;-70
2023/01/24 09:05:40;;;;;;;;;;;17.50;48.30;;;;;;10166524;28;917;-70
2023/01/24 09:10:35;;;;;;;;;;;17.50;48.20;;;;;;10166502;28;927;-70
2023/01/24 09:15:31;;;;;;;;;;;17.60;48.30;;;;;;10166143;28;857;-71
2023/01/24 09:20:26;;;;;;;;;;;17.50;48.30;;;;;;10165833;28;1972;-69
2023/01/24 09:25:22;;;;;;;;;;;17.50;48.20;;;;;;10165095;28;949;-70
2023/01/24 09:30:17;;;;;;;;;;;17.50;48.20;;;;;;10166710;28;951;-70
2023/01/24 09:35:13;;;;;;;;;;;17.50;48.20;;;;;;10165937;28;885;-72
2023/01/24 09:40:08;;;;;;;;;;;17.40;48.30;;;;;;10165865;28;1988;-69
2023/01/24 09:45:03;;;;;;;;;;;17.40;48.50;;;;;;10165004;28;814;-70
2023/01/24 09:49:59;;;;;;;;;;;17.40;48.30;;;;;;10165590;28;853;-70
2023/01/24 09:54:54;;;;;;;;;;;17.40;48.10;;;;;;10164666;28;1037;-70
2023/01/24 09:59:50;;;;;;;;;;;17.50;48.10;;;;;;10164503;28;1965;-70
2023/01/24 10:04:46;;;;;;;;;;;17.50;48.00;;;;;;10164467;28;950;-70
2023/01/24 10:09:41;;;;;;;;;;;17.50;48.10;;;;;;10163476;28;880;-70
2023/01/24 10:14:36;;;;;;;;;;;17.50;48.00;;;;;;10164355;28;987;-70
2023/01/24 10:19:32;;;;;;;;;;;17.50;48.00;;;;;;10164139;28;1902;-70
2023/01/24 10:24:27;;;;;;;;;;;17.60;48.00;;;;;;10164063;28;781;-70
2023/01/24 10:29:23;;;;;;;;;;;17.50;47.90;;;;;;10164060;28;813;-71
2023/01/24 10:34:18;;;;;;;;;;;17.60;48.00;;;;;;10163960;28;1064;-71
2023/01/24 10:39:14;;;;;;;;;;;17.60;48.00;;;;;;10163671;28;1903;-70
2023/01/24 10:44:09;;;;;;;;;;;17.60;48.00;;;;;;10164348;28;927;-70
2023/01/24 10:49:04;;;;;;;;;;;17.60;47.90;;;;;;10163567;28;887;-70
2023/01/24 10:54:00;;;;;;;;;;;17.60;47.90;;;;;;10162931;28;976;-70
2023/01/24 10:58:55;;;;;;;;;;;17.60;47.90;;;;;;10163404;28;1902;-70
2023/01/24 11:03:51;;;;;;;;;;;17.60;47.90;;;;;;10163284;28;780;-70
2023/01/24 11:08:46;;;;;;;;;;;17.60;47.90;;;;;;10163013;28;747;-70
2023/01/24 11:13:41;;;;;;;;;;;17.60;47.90;;;;;;10163688;28;939;-70
2023/01/24 11:18:37;;;;;;;;;;;17.60;47.90;;;;;;10163181;28;1902;-70
2023/01/24 11:23:32;;;;;;;;;;;17.60;48.00;;;;;;10167732;28;790;-70
2023/01/24 11:28:27;;;;;;;;;;;17.60;47.90;;;;;;10170188;28;841;-70
2023/01/24 11:33:23;;;;;;;;;;;17.60;47.90;;;;;;10169998;28;988;-70
2023/01/24 11:38:18;;;;;;;;;;;17.60;47.90;;;;;;10169723;28;1187;-70
2023/01/24 11:43:13;;;;;;;;;;;17.70;47.90;;;;;;10170319;28;1914;-70
2023/01/24 11:48:09;;;;;;;;;;;17.60;47.90;;;;;;10169459;28;845;-70
2023/01/24 11:53:04;;;;;;;;;;;17.70;47.90;;;;;;10169337;28;850;-70
2023/01/24 11:58:00;;;;;;;;;;;17.60;47.80;;;;;;10169136;28;776;-70
2023/01/24 12:02:55;;;;;;;;;;;17.60;47.90;;;;;;10168910;28;1910;-70
2023/01/24 12:07:50;;;;;;;;;;;17.60;47.80;;;;;;10169305;28;936;-70
2023/01/24 12:12:46;;;;;;;;;;;17.60;47.80;;;;;;10168628;28;809;-69
2023/01/24 12:17:41;;;;;;;;;;;17.70;47.80;;;;;;10168224;28;773;-72
2023/01/24 12:22:36;;;;;;;;;;;17.60;47.90;;;;;;10168123;28;1971;-71
2023/01/24 12:27:32;;;;;;;;;;;17.60;47.90;;;;;;10169221;28;941;-71
2023/01/24 12:32:27;;;;;;;;;;;17.60;47.90;;;;;;10167435;28;709;-72
2023/01/24 12:37:22;;;;;;;;;;;17.50;47.90;;;;;;10167649;28;774;-71
2023/01/24 12:42:18;;;;;;;;;;;17.60;47.60;;;;;;10167668;28;1959;-72
2023/01/24 12:47:13;;;;;;;;;;;17.60;47.60;;;;;;10167249;28;807;-71
2023/01/24 12:52:09;;;;;;;;;;;17.70;47.50;;;;;;10164180;28;1410;-72
2023/01/24 12:57:04;;;;;;;;;;;17.70;47.60;;;;;;10154561;28;936;-72
2023/01/24 13:01:59;;;;;;;;;;;17.70;47.60;;;;;;10162597;28;1899;-72
2023/01/24 13:06:55;;;;;;;;;;;17.60;47.60;;;;;;10147715;28;865;-71
2023/01/24 13:11:50;;;;;;;;;;;17.70;47.60;;;;;;10165191;28;861;-72
2023/01/24 13:16:45;;;;;;;;;;;17.70;47.50;;;;;;10167457;28;872;-71
2023/01/24 13:21:41;;;;;;;;;;;17.70;47.60;;;;;;10165127;28;1898;-72
2023/01/24 13:26:36;;;;;;;;;;;17.70;47.70;;;;;;10166322;28;782;-71
2023/01/24 13:31:31;;;;;;;;;;;17.70;47.80;;;;;;10166152;28;890;-70
2023/01/24 13:36:27;;;;;;;;;;;17.70;47.80;;;;;;10165024;28;901;-71
2023/01/24 13:41:22;;;;;;;;;;;17.70;47.70;;;;;;10165441;28;1910;-71
2023/01/24 13:46:18;;;;;;;;;;;17.70;47.70;;;;;;10164901;28;937;-71
2023/01/24 13:51:13;;;;;;;;;;;17.70;47.70;;;;;;10164959;28;944;-76
2023/01/24 13:56:08;;;;;;;;;;;17.70;47.80;;;;;;10164930;28;932;-75
2023/01/24 14:01:04;;;;;;;;;;;17.70;47.80;;;;;;10164324;28;1902;-75
2023/01/24 14:06:00;;;;;;;;;;;17.70;47.90;;;;;;10164131;28;874;-75
2023/01/24 14:10:55;;;;;;;;;;;17.70;47.80;;;;;;10164054;28;920;-75
2023/01/24 14:15:53;;;;;;;;;;;17.70;47.90;;;;;;10163426;28;850;-73
2023/01/24 14:20:48;;;;;;;;;;;17.70;47.90;;;;;;10163941;28;1902;-75
2023/01/24 14:25:43;;;;;;;;;;;17.80;48.00;;;;;;10164286;28;972;-75
2023/01/24 14:30:39;;;;;;;;;;;17.80;48.10;;;;;;10163945;28;937;-74
2023/01/24 14:35:35;;;;;;;;;;;17.80;48.00;;;;;;10163522;28;865;-75
2023/01/24 14:40:30;;;;;;;;;;;17.80;48.00;;;;;;10164286;28;1914;-75
2023/01/24 14:45:25;;;;;;;;;;;17.70;48.10;;;;;;10164030;28;882;-74
2023/01/24 14:50:21;;;;;;;;;;;17.80;48.20;;;;;;10163278;28;842;-74
2023/01/24 14:55:16;;;;;;;;;;;17.80;48.20;;;;;;10163115;28;780;-75
2023/01/24 15:00:11;;;;;;;;;;;17.80;48.30;;;;;;10170298;28;1907;-74
2023/01/24 15:05:07;;;;;;;;;;;17.70;48.30;;;;;;10170738;28;826;-74
2023/01/24 15:10:02;;;;;;;;;;;17.80;48.30;;;;;;10171459;28;1050;-74
2023/01/24 15:14:57;;;;;;;;;;;17.70;48.30;;;;;;10170965;28;846;-74
2023/01/24 15:19:55;;;;;;;;;;;17.80;48.30;;;;;;10170081;28;1985;-74
2023/01/24 15:24:50;;;;;;;;;;;17.80;48.40;;;;;;10170059;28;855;-74
2023/01/24 15:29:46;;;;;;;;;;;17.80;48.40;;;;;;10169868;28;854;-74
2023/01/24 15:34:41;;;;;;;;;;;17.80;48.30;;;;;;10170411;28;777;-74
2023/01/24 15:39:37;;;;;;;;;;;17.70;48.30;;;;;;10168682;28;1976;-74
2023/01/24 15:44:32;;;;;;;;;;;17.70;48.30;;;;;;10169325;28;806;-75
2023/01/24 15:49:28;;;;;;;;;;;17.80;48.30;;;;;;10169862;28;868;-74
2023/01/24 15:54:26;;;;;;;;;;;17.80;48.30;;;;;;10169025;28;1210;-74
2023/01/24 15:59:22;;;;;;;;;;;17.80;48.20;;;;;;10169465;28;1914;-74
2023/01/24 16:04:17;;;;;;;;;;;17.80;48.10;;;;;;10169151;28;927;-75
2023/01/24 16:09:13;;;;;;;;;;;17.80;48.30;;;;;;10168325;28;881;-74
2023/01/24 16:14:08;;;;;;;;;;;17.80;48.40;;;;;;10168166;28;807;-76
2023/01/24 16:19:03;;;;;;;;;;;17.80;48.40;;;;;;10168046;28;1969;-76
2023/01/24 16:23:59;;;;;;;;;;;17.80;48.50;;;;;;10167902;28;815;-78
2023/01/24 16:28:54;;;;;;;;;;;17.80;48.70;;;;;;10167947;28;942;-72
2023/01/24 16:33:50;;;;;;;;;;;17.80;48.60;;;;;;10167773;28;914;-73
2023/01/24 16:38:45;;;;;;;;;;;17.70;48.80;;;;;;10167391;28;1914;-73
2023/01/24 16:43:40;;;;;;;;;;;17.70;48.80;;;;;;10167358;28;879;-73
2023/01/24 16:48:36;;;;;;;;;;;17.70;48.90;;;;;;10167258;28;980;-73
2023/01/24 16:53:31;;;;;;;;;;;17.70;48.80;;;;;;10166525;28;852;-73
2023/01/24 16:58:26;;;;;;;;;;;17.80;48.70;;;;;;10166850;28;765;-73
2023/01/24 17:03:22;;;;;;;;;;;17.70;48.40;;;;;;10166620;28;1874;-73
2023/01/24 17:08:17;;;;;;;;;;;17.80;48.50;;;;;;10167033;28;912;-73
2023/01/24 17:13:13;;;;;;;;;;;17.80;48.30;;;;;;10166873;28;803;-73
2023/01/24 17:18:08;;;;;;;;;;;17.80;48.50;;;;;;10165932;28;777;-75
2023/01/24 17:23:03;;;;;;;;;;;17.80;48.30;;;;;;10166160;28;1944;-73
2023/01/24 17:27:59;;;;;;;;;;;17.80;48.50;;;;;;10166057;28;853;-72
2023/01/24 17:32:54;;;;;;;;;;;17.80;48.50;;;;;;10165929;28;824;-73
2023/01/24 17:37:50;;;;;;;;;;;17.80;48.60;;;;;;10165505;28;1434;-73
2023/01/24 17:42:45;;;;;;;;;;;17.80;48.40;;;;;;10166028;28;1902;-73
2023/01/24 17:47:40;;;;;;;;;;;17.80;48.50;;;;;;10165143;28;921;-73
2023/01/24 17:52:36;;;;;;;;;;;17.80;48.40;;;;;;10164904;28;826;-73
2023/01/24 17:57:31;;;;;;;;;;;17.80;48.40;;;;;;10164771;28;850;-72
2023/01/24 18:02:26;;;;;;;;;;;17.80;48.40;;;;;;10165132;28;1902;-72
2023/01/24 18:07:22;;;;;;;;;;;17.80;48.40;;;;;;10165036;28;967;-73
2023/01/24 18:12:17;;;;;;;;;;;17.80;48.30;;;;;;10164935;28;1001;-73
2023/01/24 18:17:12;;;;;;;;;;;17.80;48.20;;;;;;10164448;28;921;-72
2023/01/24 18:22:08;;;;;;;;;;;17.80;48.20;;;;;;10164069;28;1960;-72
2023/01/24 18:27:03;;;;;;;;;;;17.80;48.30;;;;;;10164825;28;810;-73
2023/01/24 18:31:59;;;;;;;;;;;17.80;48.30;;;;;;10166674;28;845;-73
2023/01/24 18:36:54;;;;;;;;;;;17.80;48.20;;;;;;10172225;28;851;-72
2023/01/24 18:41:49;;;;;;;;;;;17.80;48.30;;;;;;10171202;28;1983;-73
2023/01/24 18:46:45;;;;;;;;;;;17.80;48.20;;;;;;10171812;28;893;-72
2023/01/24 18:51:43;;;;;;;;;;;17.80;48.20;;;;;;10171223;28;901;-72
2023/01/24 18:56:38;;;;;;;;;;;17.80;48.20;;;;;;10171491;28;759;-73
2023/01/24 19:01:33;;;;;;;;;;;17.80;48.20;;;;;;10170634;28;1964;-72
2023/01/24 19:06:29;;;;;;;;;;;17.80;48.10;;;;;;10171118;28;817;-72
2023/01/24 19:11:24;;;;;;;;;;;17.80;48.10;;;;;;10170968;28;914;-73
2023/01/24 19:16:22;;;;;;;;;;;17.80;48.00;;;;;;10171336;28;881;-73
2023/01/24 19:21:17;;;;;;;;;;;17.70;47.90;;;;;;10170739;28;1956;-78
2023/01/24 19:26:12;;;;;;;;;;;17.80;48.10;;;;;;10170448;28;758;-77
2023/01/24 19:31:08;;;;;;;;;;;17.80;48.10;;;;;;10169674;28;881;-78
2023/01/24 19:36:03;;;;;;;;;;;17.80;48.00;;;;;;10169421;28;897;-78
2023/01/24 19:40:59;;;;;;;;;;;17.80;48.00;;;;;;10169131;28;1898;-74
2023/01/24 19:45:54;;;;;;;;;;;17.80;48.10;;;;;;10169214;28;933;-76
2023/01/24 19:50:49;;;;;;;;;;;17.70;48.00;;;;;;10170080;28;930;-77
2023/01/24 19:55:45;;;;;;;;;;;17.50;48.50;;;;;;10169842;28;778;-76
2023/01/24 20:00:40;;;;;;;;;;;17.40;48.70;;;;;;10169016;28;1961;-76
2023/01/24 20:05:36;;;;;;;;;;;17.40;48.80;;;;;;10168845;28;879;-76
2023/01/24 20:10:31;;;;;;;;;;;17.30;48.80;;;;;;10168134;28;1007;-76
2023/01/24 20:15:27;;;;;;;;;;;17.30;48.80;;;;;;10168569;28;818;-77
2023/01/24 20:20:22;;;;;;;;;;;17.30;48.80;;;;;;10168233;28;1899;-76
2023/01/24 20:25:18;;;;;;;;;;;17.30;48.70;;;;;;10168130;28;953;-76
2023/01/24 20:30:13;;;;;;;;;;;17.30;48.70;;;;;;10167998;28;873;-76
2023/01/24 20:35:09;;;;;;;;;;;17.30;48.60;;;;;;10167798;28;959;-76
2023/01/24 20:40:05;;;;;;;;;;;17.30;48.60;;;;;;10167614;28;1960;-77
2023/01/24 20:45:00;;;;;;;;;;;17.30;49.20;;;;;;10167534;28;970;-75
2023/01/24 20:49:56;;;;;;;;;;;17.30;48.60;;;;;;10167900;28;874;-77
2023/01/24 20:54:51;;;;;;;;;;;17.30;48.60;;;;;;10181294;28;833;-75
2023/01/24 20:59:47;;;;;;;;;;;17.20;48.60;;;;;;10167890;28;1977;-75
2023/01/24 21:04:42;;;;;;;;;;;17.30;48.60;;;;;;10166619;28;766;-75
2023/01/24 21:09:37;;;;;;;;;;;17.20;48.60;;;;;;10167026;28;1042;-76
2023/01/24 21:14:33;;;;;;;;;;;17.20;48.60;;;;;;10166471;28;873;-75
2023/01/24 21:19:28;;;;;;;;;;;17.20;48.70;;;;;;10166090;28;1969;-75
2023/01/24 21:24:23;;;;;;;;;;;17.20;48.60;;;;;;10165971;28;905;-75
2023/01/24 21:29:19;;;;;;;;;;;17.20;48.60;;;;;;10165783;28;868;-75
2023/01/24 21:34:14;;;;;;;;;;;17.20;48.60;;;;;;10165492;28;903;-75
2023/01/24 21:39:10;;;;;;;;;;;17.20;48.60;;;;;;10164652;28;1976;-75
2023/01/24 21:44:05;;;;;;;;;;;17.20;48.60;;;;;;10165290;28;817;-75
2023/01/24 21:49:06;;;;;;;;;;;17.20;48.50;;;;;;10165678;28;838;-75
2023/01/24 21:54:05;;;;;;;;;;;17.20;48.60;;;;;;10164843;28;1075;-75
2023/01/24 21:59:00;;;;;;;;;;;17.20;48.50;;;;;;10165771;28;1911;-75
2023/01/24 22:03:55;;;;;;;;;;;17.10;48.60;;;;;;10164625;28;933;-75
2023/01/24 22:08:51;;;;;;;;;;;17.20;48.60;;;;;;10165518;28;1018;-75
2023/01/24 22:13:46;;;;;;;;;;;17.20;48.60;;;;;;10164363;28;864;-75
2023/01/24 22:18:41;;;;;;;;;;;17.10;48.50;;;;;;10164830;28;826;-75
2023/01/24 22:23:37;;;;;;;;;;;17.10;48.60;;;;;;10164047;28;1973;-75
2023/01/24 22:28:32;;;;;;;;;;;17.10;48.60;;;;;;10164015;28;803;-75
2023/01/24 22:33:28;;;;;;;;;;;17.10;48.60;;;;;;10163929;28;779;-76
2023/01/24 22:38:25;;;;;;;;;;;17.10;48.60;;;;;;10163503;28;1170;-75
2023/01/24 22:43:21;;;;;;;;;;;17.10;48.70;;;;;;10164203;28;1926;-75
2023/01/24 22:48:16;;;;;;;;;;;17.10;48.70;;;;;;10164464;28;913;-75
2023/01/24 22:53:11;;;;;;;;;;;17.10;48.60;;;;;;10163505;28;943;-75
2023/01/24 22:58:07;;;;;;;;;;;17.10;48.60;;;;;;10164065;28;794;-76
2023/01/24 23:03:02;;;;;;;;;;;17.10;48.60;;;;;;10162765;28;1968;-75
2023/01/24 23:07:57;;;;;;;;;;;17.10;48.60;;;;;;10163370;28;767;-75
2023/01/24 23:18:07;;;;;;;;;;;17.10;48.60;;;;;;10166011;28;611;-76
2023/01/24 23:23:02;;;;;;;;;;;17.10;48.50;;;;;;10171117;28;1969;-76
2023/01/24 23:27:58;;;;;;;;;;;17.10;48.60;;;;;;10170386;28;950;-75
2023/01/24 23:32:53;;;;;;;;;;;17.10;48.50;;;;;;10169637;28;909;-75
2023/01/24 23:37:48;;;;;;;;;;;17.10;48.50;;;;;;10169871;28;1154;-75
2023/01/24 23:42:44;;;;;;;;;;;17.10;48.50;;;;;;10170699;28;1922;-75
2023/01/24 23:47:39;;;;;;;;;;;17.10;48.40;;;;;;10169666;28;865;-75
2023/01/24 23:52:34;;;;;;;;;;;17.10;48.40;;;;;;10169516;28;864;-75
2023/01/24 23:57:30;;;;;;;;;;;17.10;48.40;;;;;;10170002;28;810;-75
